Terminal Aerodrome Forecast
Issued by NWS El Paso, TX

Home | Current Version | Previous Version | Text Only | Print | Product List | Glossary On
Versions: 1 2 3 4 5 6 7 8 9 10 11 12 13
000
FTUS44 KEPZ 272332
TAFELP
TAF
KELP 272332Z 2800/2824 07014KT P6SM VCTS SCT090CB BKN150 BKN250
     FM280600 05007KT P6SM VCSH SCT100 BKN150
     FM281700 10008G15KT P6SM SCT080 BKN140=

USA.gov is the U.S. government's official web portal to all federal, state and local government web resources and services.